createdAt,value
2023-04-24T00:01:08.844Z,11.54
2023-04-24T00:03:35.179Z,11.53
2023-04-24T00:06:01.500Z,11.51
2023-04-24T00:08:27.913Z,11.47
2023-04-24T00:10:54.353Z,11.39
2023-04-24T00:13:21.137Z,11.30
2023-04-24T00:15:47.491Z,11.26
2023-04-24T00:18:13.940Z,11.20
2023-04-24T00:20:40.389Z,11.17
2023-04-24T00:23:06.909Z,11.13
2023-04-24T00:25:33.317Z,11.07
2023-04-24T00:27:59.742Z,10.95
2023-04-24T00:30:26.160Z,10.93
2023-04-24T00:32:52.660Z,10.94
2023-04-24T00:35:19.032Z,10.95
2023-04-24T00:37:45.488Z,10.94
2023-04-24T00:40:11.946Z,10.95
2023-04-24T00:42:38.310Z,10.94
2023-04-24T00:45:04.766Z,10.98
2023-04-24T00:47:31.180Z,11.03
2023-04-24T00:49:57.562Z,11.09
2023-04-24T00:52:23.981Z,11.17
2023-04-24T00:54:50.446Z,11.20
2023-04-24T00:57:16.818Z,11.22
2023-04-24T00:59:43.609Z,11.25
2023-04-24T01:02:09.716Z,11.22
2023-04-24T01:04:36.227Z,11.25
2023-04-24T01:07:02.557Z,11.27
2023-04-24T01:09:28.972Z,11.21
2023-04-24T01:11:55.391Z,11.18
2023-04-24T01:14:23.830Z,11.16
2023-04-24T01:16:48.173Z,11.18
2023-04-24T01:19:14.659Z,11.19
2023-04-24T01:21:41.091Z,11.15
2023-04-24T01:24:07.515Z,11.08
2023-04-24T01:26:33.872Z,11.03
2023-04-24T01:29:00.245Z,10.97
2023-04-24T01:31:26.765Z,10.90
2023-04-24T01:33:53.166Z,10.86
2023-04-24T01:36:19.630Z,10.84
2023-04-24T01:38:46.088Z,10.80
2023-04-24T01:41:12.471Z,10.76
2023-04-24T01:43:38.886Z,10.71
2023-04-24T01:46:05.347Z,10.67
2023-04-24T01:48:31.799Z,10.65
2023-04-24T01:50:58.223Z,10.63
2023-04-24T01:53:25.003Z,10.58
2023-04-24T01:55:51.340Z,10.54
2023-04-24T01:58:17.824Z,10.51
2023-04-24T02:00:44.290Z,10.47
2023-04-24T02:03:10.839Z,10.45
2023-04-24T02:05:37.083Z,10.41
2023-04-24T02:08:03.512Z,10.38
2023-04-24T02:10:29.997Z,10.36
2023-04-24T02:12:58.810Z,10.35
2023-04-24T02:15:25.362Z,10.29
2023-04-24T02:17:51.788Z,10.23
2023-04-24T02:20:18.180Z,10.20
2023-04-24T02:22:44.683Z,10.18
2023-04-24T02:25:11.088Z,10.15
2023-04-24T02:27:37.622Z,10.11
2023-04-24T02:30:04.794Z,10.07
2023-04-24T02:32:31.263Z,10.06
2023-04-24T02:34:57.671Z,10.08
2023-04-24T02:37:24.077Z,10.08
2023-04-24T02:39:50.550Z,10.08
2023-04-24T02:42:17.021Z,10.11
2023-04-24T02:44:43.431Z,10.06
2023-04-24T02:47:09.855Z,10.04
2023-04-24T02:49:36.565Z,10.00
2023-04-24T02:52:02.901Z,9.97
2023-04-24T02:54:29.412Z,9.94
2023-04-24T02:56:55.931Z,9.89
2023-04-24T02:59:22.333Z,9.83
2023-04-24T03:01:48.852Z,9.76
2023-04-24T03:04:15.435Z,9.73
2023-04-24T03:06:41.658Z,9.70
2023-04-24T03:09:08.204Z,9.70
2023-04-24T03:11:34.543Z,9.70
2023-04-24T03:14:01.116Z,9.69
2023-04-24T03:16:27.639Z,9.69
2023-04-24T03:18:53.941Z,9.68
2023-04-24T03:21:20.471Z,9.68
2023-04-24T03:23:46.932Z,9.69
2023-04-24T03:26:13.362Z,9.72
2023-04-24T03:28:39.862Z,9.72
2023-04-24T03:31:06.339Z,9.75
2023-04-24T03:33:32.679Z,9.81
2023-04-24T03:35:59.163Z,9.84
2023-04-24T03:38:25.614Z,9.91
2023-04-24T03:40:52.081Z,9.94
2023-04-24T03:43:18.519Z,9.98
2023-04-24T03:45:45.005Z,10.05
2023-04-24T03:48:11.453Z,10.09
2023-04-24T03:50:38.017Z,10.14
2023-04-24T03:53:04.460Z,10.20
2023-04-24T03:55:30.977Z,10.23
2023-04-24T03:57:57.536Z,10.27
2023-04-24T04:00:23.991Z,10.37
2023-04-24T04:02:50.593Z,10.47
2023-04-24T04:05:16.990Z,10.56
2023-04-24T04:07:43.338Z,10.64
2023-04-24T04:10:09.765Z,10.70
2023-04-24T04:12:36.241Z,10.76
2023-04-24T04:15:02.740Z,10.82
2023-04-24T04:17:29.217Z,10.90
2023-04-24T04:19:55.647Z,10.91
2023-04-24T04:22:23.250Z,11.00
2023-04-24T04:24:49.677Z,10.96
2023-04-24T04:27:16.133Z,10.90
2023-04-24T04:29:42.912Z,10.92
2023-04-24T04:32:09.279Z,10.91
2023-04-24T04:34:35.598Z,10.97
2023-04-24T04:37:02.037Z,11.18
2023-04-24T04:39:28.563Z,11.25
2023-04-24T04:41:55.070Z,11.30
2023-04-24T04:44:21.530Z,11.31
2023-04-24T04:46:48.106Z,11.29
2023-04-24T04:49:14.531Z,11.23
2023-04-24T04:51:42.863Z,11.37
2023-04-24T04:54:07.508Z,11.41
2023-04-24T04:56:34.005Z,11.45
2023-04-24T04:59:00.569Z,11.44
2023-04-24T05:01:27.139Z,11.49
2023-04-24T05:03:53.997Z,11.43
2023-04-24T05:06:21.295Z,11.46
2023-04-24T05:08:46.864Z,11.85
2023-04-24T05:11:13.282Z,12.23
2023-04-24T05:13:41.156Z,12.29
2023-04-24T05:16:06.434Z,12.27
2023-04-24T05:18:32.911Z,12.11
2023-04-24T05:20:59.326Z,12.04
2023-04-24T05:23:25.839Z,11.92
2023-04-24T05:25:52.246Z,11.93
2023-04-24T05:28:18.681Z,11.98
2023-04-24T05:30:45.193Z,12.11
2023-04-24T05:33:11.645Z,12.29
2023-04-24T05:35:38.141Z,12.58
2023-04-24T05:38:04.538Z,12.50
2023-04-24T05:40:31.018Z,12.41
2023-04-24T05:42:59.500Z,12.46
2023-04-24T05:45:23.825Z,12.85
2023-04-24T05:47:50.368Z,13.59
2023-04-24T05:50:16.824Z,13.58
2023-04-24T05:52:43.941Z,14.04
2023-04-24T05:55:10.488Z,13.76
2023-04-24T05:57:36.960Z,13.48
2023-04-24T06:00:03.372Z,13.30
2023-04-24T06:02:30.062Z,13.66
2023-04-24T06:04:56.381Z,14.23
2023-04-24T06:07:22.713Z,14.94
2023-04-24T06:09:49.093Z,15.38
2023-04-24T06:12:15.707Z,15.68
2023-04-24T06:14:42.146Z,16.32
2023-04-24T06:17:08.597Z,16.27
2023-04-24T06:19:34.956Z,16.14
2023-04-24T06:22:01.459Z,17.31
2023-04-24T06:24:30.523Z,17.84
2023-04-24T06:26:54.332Z,17.95
2023-04-24T06:29:20.863Z,17.66
2023-04-24T06:31:47.343Z,18.07
2023-04-24T06:34:13.702Z,17.61
2023-04-24T06:36:40.160Z,16.18
2023-04-24T06:39:06.609Z,16.07
2023-04-24T06:41:32.990Z,16.55
2023-04-24T06:43:59.604Z,16.98
2023-04-24T06:46:26.107Z,17.19
2023-04-24T06:48:52.512Z,18.34
2023-04-24T06:51:18.869Z,18.69
2023-04-24T06:53:46.047Z,18.32
2023-04-24T06:56:11.700Z,17.72
2023-04-24T06:58:38.133Z,18.57
2023-04-24T07:01:04.567Z,18.88
2023-04-24T07:03:31.009Z,17.92
2023-04-24T07:05:57.467Z,17.55
2023-04-24T07:08:23.873Z,17.69
2023-04-24T07:10:50.266Z,17.39
2023-04-24T07:13:16.715Z,17.87
2023-04-24T07:15:43.345Z,17.89
2023-04-24T07:18:10.259Z,18.07
2023-04-24T07:20:36.635Z,18.86
2023-04-24T07:23:03.110Z,20.15
2023-04-24T07:25:29.678Z,19.74
2023-04-24T07:27:56.010Z,18.76
2023-04-24T07:30:22.409Z,17.97
2023-04-24T07:32:48.856Z,18.48
2023-04-24T07:35:15.493Z,19.51
2023-04-24T07:37:41.886Z,20.18
2023-04-24T07:40:08.306Z,21.11
2023-04-24T07:42:34.788Z,22.15
2023-04-24T07:45:02.244Z,22.67
2023-04-24T07:47:28.777Z,22.39
2023-04-24T07:49:55.118Z,22.48
2023-04-24T07:52:21.513Z,21.55
2023-04-24T07:54:47.943Z,21.65
2023-04-24T07:57:14.346Z,22.21
2023-04-24T07:59:40.949Z,22.37
2023-04-24T08:02:07.336Z,23.07
2023-04-24T08:04:33.808Z,22.75
2023-04-24T08:07:00.122Z,23.01
2023-04-24T08:09:27.621Z,23.48
2023-04-24T08:11:52.992Z,23.45
2023-04-24T08:14:19.382Z,23.25
2023-04-24T08:16:45.759Z,23.13
2023-04-24T08:19:12.195Z,22.87
2023-04-24T08:21:38.643Z,23.17
2023-04-24T08:24:05.106Z,23.47
2023-04-24T08:26:31.509Z,23.59
2023-04-24T08:28:58.080Z,23.47
2023-04-24T08:31:24.472Z,23.54
2023-04-24T08:33:50.804Z,23.41
2023-04-24T08:36:17.226Z,23.79
2023-04-24T08:38:43.672Z,24.45
2023-04-24T08:41:10.012Z,24.39
2023-04-24T08:43:36.438Z,24.21
2023-04-24T08:46:05.550Z,23.85
2023-04-24T08:48:31.590Z,23.85
2023-04-24T08:50:55.687Z,24.28
2023-04-24T08:53:22.174Z,24.27
2023-04-24T08:55:48.545Z,25.06
2023-04-24T08:58:14.922Z,25.62
2023-04-24T09:00:41.504Z,25.49
2023-04-24T09:03:08.448Z,25.21
2023-04-24T09:05:34.701Z,24.42
2023-04-24T09:08:01.164Z,23.98
2023-04-24T09:10:27.631Z,24.49
2023-04-24T09:12:56.406Z,25.26
2023-04-24T09:15:22.772Z,26.33
2023-04-24T09:17:49.261Z,25.79
2023-04-24T09:20:15.703Z,25.14
2023-04-24T09:22:42.097Z,25.24
2023-04-24T09:25:08.518Z,24.76
2023-04-24T09:27:34.895Z,24.14
2023-04-24T09:30:01.447Z,24.19
2023-04-24T09:32:27.861Z,24.51
2023-04-24T09:34:54.590Z,25.21
2023-04-24T09:37:20.987Z,25.56
2023-04-24T09:39:47.398Z,25.72
2023-04-24T09:42:13.777Z,25.72
2023-04-24T09:44:40.172Z,25.60
2023-04-24T09:47:06.598Z,24.89
2023-04-24T09:49:33.037Z,24.48
2023-04-24T09:51:59.498Z,24.63
2023-04-24T09:54:25.887Z,24.36
2023-04-24T09:56:52.266Z,24.90
2023-04-24T09:59:19.738Z,25.60
2023-04-24T10:01:46.224Z,25.90
2023-04-24T10:04:12.606Z,27.06
2023-04-24T10:06:39.023Z,27.24
2023-04-24T10:09:05.512Z,26.19
2023-04-24T10:11:31.989Z,25.78
2023-04-24T10:13:58.835Z,26.10
2023-04-24T10:16:25.424Z,26.49
2023-04-24T10:18:51.604Z,26.55
2023-04-24T10:21:18.002Z,26.16
2023-04-24T10:23:44.368Z,25.05
2023-04-24T10:26:10.773Z,24.30
2023-04-24T10:28:37.231Z,24.93
2023-04-24T10:31:03.770Z,25.97
2023-04-24T10:33:30.072Z,25.87
2023-04-24T10:35:56.508Z,26.17
2023-04-24T10:38:22.964Z,26.97
2023-04-24T10:40:49.338Z,27.86
2023-04-24T10:43:15.738Z,27.28
2023-04-24T10:45:42.248Z,26.84
2023-04-24T10:48:08.697Z,27.03
2023-04-24T10:50:37.151Z,26.07
2023-04-24T10:53:03.607Z,24.52
2023-04-24T10:55:29.980Z,23.82
2023-04-24T10:57:56.369Z,23.63
2023-04-24T11:00:22.806Z,23.89
2023-04-24T11:02:51.729Z,23.53
2023-04-24T11:05:17.734Z,23.08
2023-04-24T11:07:44.227Z,22.94
2023-04-24T11:10:10.647Z,22.61
2023-04-24T11:12:37.072Z,22.43
2023-04-24T11:15:03.797Z,22.31
2023-04-24T11:17:29.919Z,22.19
2023-04-24T11:19:56.353Z,22.07
2023-04-24T11:22:22.668Z,21.95
2023-04-24T11:24:49.088Z,21.80
2023-04-24T11:27:15.575Z,21.47
2023-04-24T11:29:41.951Z,21.21
2023-04-24T11:32:08.414Z,20.42
2023-04-24T11:34:34.805Z,19.36
2023-04-24T11:37:01.225Z,18.78
2023-04-24T11:39:27.641Z,18.65
2023-04-24T11:41:54.065Z,19.81
2023-04-24T11:44:20.469Z,20.62
2023-04-24T11:46:46.879Z,20.45
2023-04-24T11:49:13.268Z,20.75
2023-04-24T11:51:52.296Z,21.49
2023-04-24T11:54:06.169Z,22.30
2023-04-24T11:56:32.566Z,22.62
2023-04-24T11:58:58.958Z,22.69
2023-04-24T12:01:25.378Z,22.52
2023-04-24T12:03:52.144Z,21.77
2023-04-24T12:06:18.376Z,21.43
2023-04-24T12:08:44.617Z,21.20
2023-04-24T12:11:11.079Z,21.09
2023-04-24T12:13:37.503Z,21.32
2023-04-24T12:16:03.861Z,21.16
2023-04-24T12:18:30.294Z,20.86
2023-04-24T12:21:01.339Z,20.80
2023-04-24T12:23:23.078Z,20.94
2023-04-24T12:25:49.512Z,20.85
2023-04-24T12:28:16.030Z,20.66
2023-04-24T12:30:42.440Z,20.63
2023-04-24T12:33:08.883Z,20.45
2023-04-24T12:35:36.427Z,20.50
2023-04-24T12:38:02.838Z,20.45
2023-04-24T12:40:29.245Z,20.53
2023-04-24T12:42:56.834Z,20.52
2023-04-24T12:45:22.135Z,20.61
2023-04-24T12:47:48.528Z,20.70
2023-04-24T12:50:14.918Z,20.86
2023-04-24T12:52:41.344Z,20.73
2023-04-24T12:55:07.706Z,20.69
2023-04-24T12:57:34.080Z,20.63
2023-04-24T13:00:00.461Z,20.43
2023-04-24T13:02:26.987Z,20.12
2023-04-24T13:04:53.315Z,19.92
2023-04-24T13:07:19.745Z,20.13
2023-04-24T13:09:46.153Z,20.31
2023-04-24T13:12:12.595Z,20.24
2023-04-24T13:14:38.970Z,20.27
2023-04-24T13:17:05.391Z,20.37
2023-04-24T13:19:31.877Z,20.55
2023-04-24T13:21:58.231Z,20.47
2023-04-24T13:24:26.815Z,20.26
2023-04-24T13:26:53.246Z,20.39
2023-04-24T13:29:19.746Z,20.40
2023-04-24T13:31:46.270Z,20.58
2023-04-24T13:34:12.589Z,20.84
2023-04-24T13:36:39.053Z,20.84
2023-04-24T13:39:05.471Z,21.02
2023-04-24T13:41:31.874Z,20.93
2023-04-24T13:43:58.314Z,20.89
2023-04-24T13:46:24.793Z,20.87
2023-04-24T13:48:51.118Z,20.85
2023-04-24T13:51:17.548Z,21.09
2023-04-24T13:53:44.203Z,21.16
2023-04-24T13:56:10.410Z,20.79
2023-04-24T13:58:36.783Z,20.71
2023-04-24T14:01:03.274Z,20.82
2023-04-24T14:03:29.833Z,20.88
2023-04-24T14:05:56.292Z,20.89
2023-04-24T14:08:22.659Z,20.82
2023-04-24T14:10:49.040Z,20.72
2023-04-24T14:13:15.661Z,20.54
2023-04-24T14:15:42.161Z,20.48
2023-04-24T14:18:08.560Z,20.44
2023-04-24T14:20:35.033Z,20.38
2023-04-24T14:23:01.492Z,20.45
2023-04-24T14:25:27.872Z,20.35
2023-04-24T14:27:54.361Z,19.98
2023-04-24T14:30:20.786Z,19.76
2023-04-24T14:32:47.242Z,19.57
2023-04-24T14:35:13.576Z,19.12
2023-04-24T14:37:39.962Z,18.83
2023-04-24T14:40:21.230Z,18.54
2023-04-24T14:42:32.784Z,18.57
2023-04-24T14:44:59.223Z,18.58
2023-04-24T14:47:25.628Z,18.54
2023-04-24T14:49:52.114Z,18.52
2023-04-24T14:52:18.477Z,18.43
2023-04-24T14:54:47.150Z,18.51
2023-04-24T14:57:15.896Z,18.50
2023-04-24T14:59:39.969Z,18.58
2023-04-24T15:02:15.958Z,18.59
2023-04-24T15:04:33.013Z,18.48
2023-04-24T15:06:59.268Z,18.50
2023-04-24T15:09:25.700Z,18.53
2023-04-24T15:11:52.127Z,18.42
2023-04-24T15:14:18.537Z,18.28
2023-04-24T15:16:45.000Z,18.09
2023-04-24T15:19:11.468Z,17.86
2023-04-24T15:21:37.883Z,17.79
2023-04-24T15:24:04.295Z,17.66
2023-04-24T15:26:30.883Z,17.45
2023-04-24T15:28:57.305Z,17.37
2023-04-24T15:31:23.758Z,17.38
2023-04-24T15:33:50.315Z,17.39
2023-04-24T15:36:16.634Z,17.31
2023-04-24T15:38:42.998Z,17.22
2023-04-24T15:41:09.486Z,17.15
2023-04-24T15:43:35.932Z,17.19
2023-04-24T15:46:02.381Z,17.26
2023-04-24T15:48:28.738Z,17.24
2023-04-24T15:50:55.155Z,17.20
2023-04-24T15:53:21.716Z,17.13
2023-04-24T15:55:48.098Z,17.09
2023-04-24T15:58:14.588Z,17.02
2023-04-24T16:00:40.975Z,16.83
2023-04-24T16:03:09.952Z,16.73
2023-04-24T16:05:33.895Z,16.76
2023-04-24T16:08:00.496Z,16.74
2023-04-24T16:10:27.195Z,16.59
2023-04-24T16:12:53.553Z,16.65
2023-04-24T16:15:19.982Z,16.66
2023-04-24T16:17:46.496Z,16.66
2023-04-24T16:20:12.831Z,16.53
2023-04-24T16:22:39.413Z,16.24
2023-04-24T16:25:06.276Z,16.03
2023-04-24T16:27:32.632Z,15.99
2023-04-24T16:29:59.129Z,15.89
2023-04-24T16:32:25.649Z,15.75
2023-04-24T16:34:52.152Z,15.60
2023-04-24T16:37:18.564Z,15.41
2023-04-24T16:39:44.945Z,15.30
2023-04-24T16:42:11.638Z,15.19
2023-04-24T16:44:38.072Z,15.10
2023-04-24T16:47:04.557Z,15.05
2023-04-24T16:49:31.167Z,14.99
2023-04-24T16:51:57.765Z,15.01
2023-04-24T16:54:24.205Z,14.98
2023-04-24T16:56:53.282Z,14.98
2023-04-24T16:59:17.286Z,14.95
2023-04-24T17:01:43.482Z,14.95
2023-04-24T17:04:10.927Z,14.90
2023-04-24T17:06:37.234Z,14.77
2023-04-24T17:09:03.868Z,14.75
2023-04-24T17:11:31.191Z,14.73
2023-04-24T17:13:56.815Z,14.66
2023-04-24T17:16:25.427Z,14.65
2023-04-24T17:18:51.918Z,14.64
2023-04-24T17:21:18.416Z,14.64
2023-04-24T17:23:45.392Z,14.61
2023-04-24T17:26:11.819Z,14.61
2023-04-24T17:28:38.332Z,14.67
2023-04-24T17:31:04.660Z,14.72
2023-04-24T17:33:31.088Z,14.78
2023-04-24T17:35:57.588Z,14.80
2023-04-24T17:38:23.960Z,14.78
2023-04-24T17:40:50.479Z,14.73
2023-04-24T17:43:16.937Z,14.68
2023-04-24T17:45:44.619Z,14.76
2023-04-24T17:48:11.110Z,14.82
2023-04-24T17:50:37.574Z,14.74
2023-04-24T17:53:03.927Z,14.76
2023-04-24T17:55:30.629Z,14.81
2023-04-24T17:57:57.160Z,14.79
2023-04-24T18:00:23.784Z,14.68
2023-04-24T18:02:50.474Z,14.60
2023-04-24T18:05:17.179Z,14.56
2023-04-24T18:07:43.596Z,14.49
2023-04-24T18:10:10.323Z,14.47
2023-04-24T18:12:36.687Z,14.51
2023-04-24T18:15:13.711Z,14.49
2023-04-24T18:17:29.536Z,14.34
2023-04-24T18:19:55.998Z,14.05
2023-04-24T18:22:22.645Z,13.81
2023-04-24T18:24:49.164Z,13.50
2023-04-24T18:27:15.590Z,13.01
2023-04-24T18:29:42.237Z,12.57
2023-04-24T18:32:08.649Z,12.23
2023-04-24T18:34:35.050Z,11.91
2023-04-24T18:37:01.503Z,11.74
2023-04-24T18:39:27.922Z,11.71
2023-04-24T18:41:54.297Z,11.68
2023-04-24T18:44:20.788Z,11.71
2023-04-24T18:46:47.289Z,11.79
2023-04-24T18:49:13.781Z,11.79
2023-04-24T18:51:52.577Z,11.78
2023-04-24T18:54:06.688Z,11.77
2023-04-24T18:56:33.300Z,11.79
2023-04-24T18:58:59.723Z,11.80
2023-04-24T19:01:26.251Z,11.79
2023-04-24T19:03:52.768Z,11.76
2023-04-24T19:06:20.131Z,11.76
2023-04-24T19:08:46.932Z,11.83
2023-04-24T19:11:13.043Z,11.96
2023-04-24T19:13:39.498Z,12.09
2023-04-24T19:16:06.082Z,12.25
2023-04-24T19:18:32.411Z,12.32
2023-04-24T19:20:58.809Z,12.50
2023-04-24T19:23:25.264Z,12.62
2023-04-24T19:25:51.765Z,12.68
2023-04-24T19:28:18.096Z,12.70
2023-04-24T19:30:44.615Z,12.71
2023-04-24T19:33:11.049Z,12.65
2023-04-24T19:35:37.502Z,12.60
2023-04-24T19:38:03.937Z,12.57
2023-04-24T19:40:30.526Z,12.46
2023-04-24T19:42:56.984Z,12.40
2023-04-24T19:45:23.449Z,12.33
2023-04-24T19:47:49.856Z,12.26
2023-04-24T19:50:16.716Z,12.25
2023-04-24T19:52:43.515Z,12.32
2023-04-24T19:55:09.919Z,12.26
2023-04-24T19:57:36.404Z,12.31
2023-04-24T20:00:02.817Z,12.39
2023-04-24T20:02:29.473Z,12.39
2023-04-24T20:04:55.930Z,12.40
2023-04-24T20:07:22.170Z,12.39
2023-04-24T20:09:48.641Z,12.36
2023-04-24T20:12:15.013Z,12.35
2023-04-24T20:14:41.404Z,12.37
2023-04-24T20:17:07.941Z,12.38
2023-04-24T20:19:34.388Z,12.30
2023-04-24T20:22:00.710Z,12.23
2023-04-24T20:24:27.114Z,12.17
2023-04-24T20:26:53.531Z,12.03
2023-04-24T20:29:20.125Z,11.95
2023-04-24T20:31:46.630Z,11.88
2023-04-24T20:34:12.958Z,11.78
2023-04-24T20:36:39.315Z,11.59
2023-04-24T20:39:05.975Z,11.55
2023-04-24T20:41:32.399Z,11.53
2023-04-24T20:43:58.884Z,11.52
2023-04-24T20:46:25.423Z,11.52
2023-04-24T20:48:51.806Z,11.50
2023-04-24T20:51:18.117Z,11.52
2023-04-24T20:53:44.511Z,11.54
2023-04-24T20:56:10.919Z,11.55
2023-04-24T20:58:37.321Z,11.62
2023-04-24T21:01:03.783Z,11.64
2023-04-24T21:03:30.413Z,11.63
2023-04-24T21:05:56.795Z,11.63
2023-04-24T21:08:23.213Z,11.63
2023-04-24T21:10:49.641Z,11.68
2023-04-24T21:13:16.076Z,11.78
2023-04-24T21:15:42.520Z,11.75
2023-04-24T21:18:09.039Z,11.75
2023-04-24T21:20:35.414Z,11.73
2023-04-24T21:23:01.785Z,11.67
2023-04-24T21:25:28.255Z,11.65
2023-04-24T21:27:54.599Z,11.69
2023-04-24T21:30:20.988Z,11.78
2023-04-24T21:32:47.428Z,11.78
2023-04-24T21:35:13.830Z,11.66
2023-04-24T21:37:40.279Z,11.54
2023-04-24T21:40:06.669Z,11.40
2023-04-24T21:42:33.081Z,11.37
2023-04-24T21:44:59.484Z,11.29
2023-04-24T21:47:26.167Z,11.27
2023-04-24T21:49:52.625Z,11.25
2023-04-24T21:52:19.097Z,11.20
2023-04-24T21:54:45.459Z,11.19
2023-04-24T21:57:11.825Z,11.23
2023-04-24T21:59:38.244Z,11.17
2023-04-24T22:02:04.664Z,11.17
2023-04-24T22:04:31.123Z,11.16
2023-04-24T22:06:57.446Z,11.16
2023-04-24T22:09:23.969Z,11.14
2023-04-24T22:11:50.379Z,11.16
2023-04-24T22:14:16.814Z,11.15
2023-04-24T22:16:43.331Z,11.14
2023-04-24T22:19:09.665Z,11.18
2023-04-24T22:21:36.098Z,11.14
2023-04-24T22:24:02.536Z,11.17
2023-04-24T22:26:29.244Z,11.19
2023-04-24T22:28:55.668Z,11.20
2023-04-24T22:31:22.031Z,11.24
2023-04-24T22:33:48.681Z,11.30
2023-04-24T22:36:15.282Z,11.35
2023-04-24T22:38:41.646Z,11.43
2023-04-24T22:41:08.108Z,11.50
2023-04-24T22:43:34.546Z,11.45
2023-04-24T22:46:00.889Z,11.43
2023-04-24T22:48:27.349Z,11.44
2023-04-24T22:50:53.820Z,11.55
2023-04-24T22:53:20.180Z,11.56
2023-04-24T22:55:46.578Z,11.50
2023-04-24T22:58:13.036Z,11.51
2023-04-24T23:00:39.501Z,11.51
2023-04-24T23:03:05.961Z,11.51
2023-04-24T23:05:32.294Z,11.58
2023-04-24T23:07:58.783Z,11.54
2023-04-24T23:10:25.173Z,11.58
2023-04-24T23:12:51.743Z,11.62
2023-04-24T23:15:18.212Z,11.58
2023-04-24T23:17:44.718Z,11.57
2023-04-24T23:20:12.104Z,11.64
2023-04-24T23:22:38.617Z,11.72
2023-04-24T23:25:05.067Z,11.75
2023-04-24T23:27:31.460Z,11.79
2023-04-24T23:29:57.965Z,11.76
2023-04-24T23:32:24.434Z,11.72
2023-04-24T23:34:50.890Z,11.73
2023-04-24T23:37:18.923Z,11.72
2023-04-24T23:39:43.723Z,11.68
2023-04-24T23:42:10.106Z,11.58
2023-04-24T23:44:36.575Z,11.50
2023-04-24T23:47:02.989Z,11.49
2023-04-24T23:49:29.428Z,11.51
2023-04-24T23:51:55.879Z,11.49
2023-04-24T23:54:22.335Z,11.52
2023-04-24T23:56:48.715Z,11.59
2023-04-24T23:59:15.175Z,11.57
